createdAt,value
2017-08-23T00:00:47.171Z,51.48
2017-08-23T00:01:57.130Z,51.8
2017-08-23T00:03:06.459Z,51.68
2017-08-23T00:04:16.390Z,51.58
2017-08-23T00:05:26.625Z,51.58
2017-08-23T00:06:36.558Z,52.06
2017-08-23T00:07:46.519Z,52.06
2017-08-23T00:08:56.759Z,52.06
2017-08-23T00:10:06.681Z,51.87
2017-08-23T00:11:16.605Z,52.25
2017-08-23T00:12:26.517Z,52.25
2017-08-23T00:13:36.142Z,52.25
2017-08-23T00:14:46.057Z,51.97
2017-08-23T00:15:56.032Z,52.16
2017-08-23T00:17:05.962Z,52.06
2017-08-23T00:18:15.918Z,51.87
2017-08-23T00:19:25.829Z,52.16
2017-08-23T00:20:35.749Z,51.97
2017-08-23T00:21:45.689Z,52.64
2017-08-23T00:22:55.288Z,52.55
2017-08-23T00:24:04.920Z,52.64
2017-08-23T00:25:14.551Z,52.35
2017-08-23T00:26:24.461Z,52.35
2017-08-23T00:27:34.391Z,52.35
2017-08-23T00:28:44.626Z,52.35
2017-08-23T00:29:54.565Z,52.45
2017-08-23T00:31:04.182Z,52.83
2017-08-23T00:32:14.101Z,52.83
2017-08-23T00:33:24.023Z,52.73
2017-08-23T00:34:33.942Z,52.61
2017-08-23T00:35:43.608Z,52.73
2017-08-23T00:36:53.846Z,52.81
2017-08-23T00:38:03.801Z,52.81
2017-08-23T00:39:13.718Z,52.52
2017-08-23T00:40:22.756Z,53
2017-08-23T00:41:32.682Z,52.91
2017-08-23T00:42:42.310Z,52.16
2017-08-23T00:43:52.314Z,52.04
2017-08-23T00:45:02.542Z,52.52
2017-08-23T00:46:12.173Z,52.61
2017-08-23T00:47:22.404Z,53
2017-08-23T00:48:32.626Z,52.61
2017-08-23T00:49:42.851Z,52.91
2017-08-23T00:50:52.774Z,52.81
2017-08-23T00:52:02.996Z,52.42
2017-08-23T00:53:12.304Z,52.33
2017-08-23T00:54:22.608Z,52.42
2017-08-23T00:55:32.840Z,52.33
2017-08-23T00:56:43.060Z,52.42
2017-08-23T00:57:52.973Z,52.42
2017-08-23T00:59:02.579Z,52.33
2017-08-23T01:00:12.802Z,52.33
2017-08-23T01:01:23.059Z,52.42
2017-08-23T01:02:33.018Z,52.33
2017-08-23T01:03:43.247Z,52.42
2017-08-23T01:04:53.181Z,52.13
2017-08-23T01:06:02.824Z,52.91
2017-08-23T01:07:12.141Z,52.81
2017-08-23T01:08:22.074Z,52.71
2017-08-23T01:09:31.683Z,52.71
2017-08-23T01:10:41.918Z,52.71
2017-08-23T01:11:51.526Z,52.81
2017-08-23T01:13:01.758Z,52.71
2017-08-23T01:14:11.991Z,52.61
2017-08-23T01:15:21.901Z,52.71
2017-08-23T01:16:32.125Z,52.61
2017-08-23T01:17:42.203Z,52.61
2017-08-23T01:18:52.421Z,52.61
2017-08-23T01:20:02.704Z,53
2017-08-23T01:21:12.003Z,52.71
2017-08-23T01:22:21.932Z,52.71
2017-08-23T01:23:32.176Z,52.61
2017-08-23T01:24:41.807Z,52.61
2017-08-23T01:25:51.448Z,52.42
2017-08-23T01:27:01.679Z,52.61
2017-08-23T01:28:11.920Z,52.52
2017-08-23T01:29:22.144Z,52.52
2017-08-23T01:30:32.060Z,52.91
2017-08-23T01:31:42.309Z,52.81
2017-08-23T01:32:52.274Z,53
2017-08-23T01:34:02.226Z,53.19
2017-08-23T01:35:11.843Z,52.61
2017-08-23T01:36:21.765Z,52.81
2017-08-23T01:37:31.392Z,52.81
2017-08-23T01:38:41.638Z,52.71
2017-08-23T01:39:51.567Z,52.61
2017-08-23T01:41:01.809Z,52.42
2017-08-23T01:42:11.732Z,52.71
2017-08-23T01:43:21.337Z,52.52
2017-08-23T01:44:31.569Z,52.42
2017-08-23T01:45:41.799Z,52.81
2017-08-23T01:46:51.708Z,52.42
2017-08-23T01:48:01.327Z,52.71
2017-08-23T01:49:10.341Z,52.71
2017-08-23T01:50:20.259Z,52.61
2017-08-23T01:51:29.867Z,52.52
2017-08-23T01:52:40.098Z,52.52
2017-08-23T01:53:50.337Z,52.61
2017-08-23T01:55:00.247Z,52.61
2017-08-23T01:56:10.201Z,52.61
2017-08-23T01:57:20.435Z,52.61
2017-08-23T01:58:30.681Z,52.61
2017-08-23T01:59:40.643Z,52.52
2017-08-23T02:00:50.868Z,52.61
2017-08-23T02:02:01.096Z,52.61
2017-08-23T02:03:10.721Z,52.52
2017-08-23T02:04:20.656Z,52.71
2017-08-23T02:05:30.269Z,52.71
2017-08-23T02:06:40.188Z,52.42
2017-08-23T02:07:49.810Z,52.91
2017-08-23T02:08:59.726Z,52.33
2017-08-23T02:10:09.643Z,52.81
2017-08-23T02:11:19.244Z,53
2017-08-23T02:12:28.868Z,53.39
2017-08-23T02:13:38.493Z,53
2017-08-23T02:14:48.482Z,53.07
2017-08-23T02:15:58.110Z,53.09
2017-08-23T02:17:07.720Z,52.87
2017-08-23T02:18:18.320Z,52.87
2017-08-23T02:19:28.239Z,52.78
2017-08-23T02:20:38.163Z,52.78
2017-08-23T02:21:47.465Z,52.78
2017-08-23T02:22:56.822Z,53.17
2017-08-23T02:24:07.053Z,53.07
2017-08-23T02:25:16.683Z,53.07
2017-08-23T02:26:26.294Z,53.17
2017-08-23T02:27:35.922Z,53.07
2017-08-23T02:28:45.863Z,53.27
2017-08-23T02:29:56.095Z,53.65
2017-08-23T02:31:06.342Z,53.55
2017-08-23T02:32:15.977Z,53.36
2017-08-23T02:33:25.586Z,53.45
2017-08-23T02:34:35.203Z,53.27
2017-08-23T02:35:45.125Z,53.17
2017-08-23T02:36:54.747Z,53.36
2017-08-23T02:38:04.367Z,53.07
2017-08-23T02:39:13.992Z,53.55
2017-08-23T02:40:24.207Z,53.36
2017-08-23T02:41:34.433Z,53.45
2017-08-23T02:42:44.050Z,53.27
2017-08-23T02:43:53.673Z,53.36
2017-08-23T02:45:02.682Z,53.27
2017-08-23T02:46:12.926Z,53.27
2017-08-23T02:47:22.860Z,53.36
2017-08-23T02:48:33.136Z,53.07
2017-08-23T02:49:42.746Z,53.74
2017-08-23T02:50:52.377Z,52.87
2017-08-23T02:52:02.620Z,52.97
2017-08-23T02:53:12.239Z,52.97
2017-08-23T02:54:22.460Z,53.17
2017-08-23T02:55:32.074Z,53.27
2017-08-23T02:56:42.017Z,53.27
2017-08-23T02:57:52.257Z,53.36
2017-08-23T02:59:02.179Z,53.27
2017-08-23T03:00:11.806Z,53.45
2017-08-23T03:01:22.048Z,53.17
2017-08-23T03:02:31.971Z,53.07
2017-08-23T03:03:42.219Z,53.07
2017-08-23T03:04:52.141Z,53.45
2017-08-23T03:06:01.779Z,53.07
2017-08-23T03:07:11.420Z,53.27
2017-08-23T03:08:21.346Z,53.07
2017-08-23T03:09:30.981Z,52.87
2017-08-23T03:10:40.592Z,53.65
2017-08-23T03:11:50.507Z,53.17
2017-08-23T03:13:00.120Z,52.97
2017-08-23T03:14:10.039Z,53.17
2017-08-23T03:15:19.968Z,52.97
2017-08-23T03:16:29.896Z,53.07
2017-08-23T03:17:40.132Z,53.17
2017-08-23T03:18:50.050Z,53.45
2017-08-23T03:19:59.972Z,53.74
2017-08-23T03:21:09.278Z,53.07
2017-08-23T03:22:19.198Z,53.27
2017-08-23T03:23:29.435Z,53.36
2017-08-23T03:24:39.072Z,53.07
2017-08-23T03:25:48.994Z,53.55
2017-08-23T03:26:58.641Z,53.17
2017-08-23T03:28:08.277Z,52.95
2017-08-23T03:29:18.530Z,53.36
2017-08-23T03:30:28.457Z,53.36
2017-08-23T03:31:38.383Z,53.65
2017-08-23T03:32:48.615Z,53.43
2017-08-23T03:33:58.853Z,54.1
2017-08-23T03:35:09.078Z,53.91
2017-08-23T03:36:18.994Z,54
2017-08-23T03:37:28.923Z,54
2017-08-23T03:38:38.526Z,54.1
2017-08-23T03:39:48.765Z,54
2017-08-23T03:40:58.378Z,54
2017-08-23T03:42:08.542Z,54.1
2017-08-23T03:43:18.163Z,54.1
2017-08-23T03:44:28.085Z,54
2017-08-23T03:45:38.002Z,53.91
2017-08-23T03:46:48.225Z,53.53
2017-08-23T03:47:57.833Z,53.72
2017-08-23T03:49:07.760Z,53.33
2017-08-23T03:50:17.380Z,54
2017-08-23T03:51:26.990Z,54
2017-08-23T03:52:37.229Z,53.72
2017-08-23T03:53:47.479Z,53.72
2017-08-23T03:54:57.702Z,53.91
2017-08-23T03:56:07.615Z,53.72
2017-08-23T03:59:50.223Z,53.81
2017-08-23T04:01:00.480Z,53.72
2017-08-23T04:02:10.699Z,53.91
2017-08-23T04:03:20.928Z,53.91
2017-08-23T04:04:31.166Z,53.72
2017-08-23T04:05:41.099Z,53.91
2017-08-23T04:06:51.017Z,53.72
2017-08-23T04:08:00.936Z,53.72
2017-08-23T04:09:11.193Z,54
2017-08-23T04:10:21.421Z,54.2
2017-08-23T04:11:31.371Z,54.1
2017-08-23T04:12:40.993Z,53.81
2017-08-23T04:13:51.232Z,54
2017-08-23T04:15:01.173Z,54
2017-08-23T04:16:11.450Z,54.1
2017-08-23T04:17:21.072Z,53.81
2017-08-23T04:18:30.993Z,53.81
2017-08-23T04:19:40.937Z,54.1
2017-08-23T04:20:50.542Z,54.49
2017-08-23T04:22:00.769Z,54.2
2017-08-23T04:23:10.678Z,54.2
2017-08-23T04:24:20.909Z,54
2017-08-23T04:25:30.532Z,54
2017-08-23T04:26:40.459Z,54.2
2017-08-23T04:27:50.377Z,54
2017-08-23T04:29:00.288Z,54
2017-08-23T04:30:10.222Z,54
2017-08-23T04:31:20.137Z,54
2017-08-23T04:32:28.826Z,54
2017-08-23T04:33:38.780Z,53.81
2017-08-23T04:34:48.704Z,54.1
2017-08-23T04:35:58.335Z,54
2017-08-23T04:37:07.959Z,54.39
2017-08-23T04:38:17.881Z,54
2017-08-23T04:39:27.487Z,54.2
2017-08-23T04:40:37.105Z,54.2
2017-08-23T04:41:46.407Z,54.2
2017-08-23T04:42:56.645Z,54.1
2017-08-23T04:44:06.623Z,54.1
2017-08-23T04:45:16.564Z,54.3
2017-08-23T04:46:26.180Z,54.1
2017-08-23T04:47:36.399Z,54.2
2017-08-23T04:48:46.318Z,54.1
2017-08-23T04:49:56.571Z,53.91
2017-08-23T04:51:06.496Z,54.2
2017-08-23T04:52:16.125Z,54.2
2017-08-23T04:53:26.048Z,54
2017-08-23T04:54:36.283Z,54
2017-08-23T04:55:46.236Z,54.39
2017-08-23T04:56:56.154Z,54.1
2017-08-23T04:58:05.786Z,54.1
2017-08-23T04:59:15.702Z,54.1
2017-08-23T05:00:25.622Z,53.72
2017-08-23T05:02:01.218Z,54.1
2017-08-23T05:03:11.188Z,54.1
2017-08-23T05:04:21.409Z,54.1
2017-08-23T05:05:31.334Z,54
2017-08-23T05:06:41.247Z,53.81
2017-08-23T05:07:50.858Z,54.1
2017-08-23T05:09:00.759Z,54.2
2017-08-23T05:10:10.982Z,54.1
2017-08-23T05:11:21.204Z,53.81
2017-08-23T05:12:31.142Z,54
2017-08-23T05:13:40.456Z,53.72
2017-08-23T05:14:50.825Z,53.62
2017-08-23T05:16:01.037Z,53.72
2017-08-23T05:17:10.976Z,54
2017-08-23T05:18:21.217Z,53.62
2017-08-23T05:19:31.197Z,53.72
2017-08-23T05:20:41.296Z,53.91
2017-08-23T05:21:50.612Z,53.62
2017-08-23T05:23:00.846Z,54.2
2017-08-23T05:24:11.065Z,53.43
2017-08-23T05:25:21.291Z,54.1
2017-08-23T05:26:31.266Z,53.72
2017-08-23T05:27:41.494Z,53.53
2017-08-23T05:28:51.119Z,53.53
2017-08-23T05:30:00.410Z,52.95
2017-08-23T05:31:09.752Z,53.14
2017-08-23T05:32:20.124Z,53.33
2017-08-23T05:33:29.725Z,53.72
2017-08-23T05:34:39.931Z,52.95
2017-08-23T05:35:49.853Z,53.27
2017-08-23T05:37:00.077Z,53.07
2017-08-23T05:38:10.355Z,53.17
2017-08-23T05:39:20.275Z,52.69
2017-08-23T05:40:30.208Z,52.59
2017-08-23T05:41:40.435Z,52.23
2017-08-23T05:42:50.343Z,51.75
2017-08-23T05:44:00.901Z,51.36
2017-08-23T05:45:10.837Z,51.75
2017-08-23T05:46:20.774Z,51.65
2017-08-23T05:47:31.021Z,51.68
2017-08-23T05:48:40.944Z,51.2
2017-08-23T05:49:51.471Z,51.29
2017-08-23T05:51:01.399Z,51
2017-08-23T05:52:11.643Z,51.2
2017-08-23T05:53:20.646Z,51.1
2017-08-23T05:54:30.873Z,50.71
2017-08-23T05:55:41.272Z,50.64
2017-08-23T05:56:51.189Z,50.54
2017-08-23T05:58:01.149Z,49.87
2017-08-23T05:59:11.091Z,49.22
2017-08-23T06:00:21.014Z,49.22
2017-08-23T06:01:31.426Z,49.12
2017-08-23T06:02:41.361Z,49.22
2017-08-23T06:03:51.279Z,49.6
2017-08-23T06:05:01.523Z,49.8
2017-08-23T06:06:11.135Z,49.99
2017-08-23T06:07:20.739Z,49.7
2017-08-23T06:08:30.665Z,50.18
2017-08-23T06:09:40.897Z,49.99
2017-08-23T06:10:51.153Z,50.57
2017-08-23T06:12:01.084Z,50.45
2017-08-23T06:13:11.402Z,50.84
2017-08-23T06:14:21.630Z,50.84
2017-08-23T06:15:31.549Z,51.12
2017-08-23T06:16:41.776Z,51.03
2017-08-23T06:17:52.011Z,51.39
2017-08-23T06:19:01.642Z,51.77
2017-08-23T06:20:11.866Z,51.77
2017-08-23T06:21:21.808Z,51.77
2017-08-23T06:22:30.809Z,51.97
2017-08-23T06:23:40.730Z,51.68
2017-08-23T06:24:50.766Z,51.87
2017-08-23T06:26:00.711Z,52.06
2017-08-23T06:27:10.941Z,51.97
2017-08-23T06:28:20.865Z,52.73
2017-08-23T06:29:30.818Z,52.61
2017-08-23T06:30:41.219Z,52.61
2017-08-23T06:31:50.526Z,52.23
2017-08-23T06:33:00.767Z,52.42
2017-08-23T06:34:11.017Z,52.04
2017-08-23T06:35:20.638Z,52.81
2017-08-23T06:36:30.608Z,52.61
2017-08-23T06:37:40.845Z,52.71
2017-08-23T06:38:51.085Z,52.61
2017-08-23T06:40:00.699Z,52.71
2017-08-23T06:41:10.305Z,52.33
2017-08-23T06:42:20.370Z,53.39
2017-08-23T06:43:30.599Z,53.19
2017-08-23T06:44:40.546Z,53.09
2017-08-23T06:45:50.777Z,53
2017-08-23T06:47:01.028Z,52.91
2017-08-23T06:48:11.102Z,53.29
2017-08-23T06:49:20.725Z,53.29
2017-08-23T06:50:30.409Z,52.81
2017-08-23T06:51:39.738Z,52.52
2017-08-23T06:52:49.971Z,52.42
2017-08-23T06:53:59.756Z,52.91
2017-08-23T06:55:09.701Z,52.52
2017-08-23T06:56:19.629Z,52.61
2017-08-23T06:57:29.846Z,52.04
2017-08-23T06:58:39.786Z,52.04
2017-08-23T06:59:49.765Z,51.58
2017-08-23T07:01:00.010Z,51.68
2017-08-23T07:02:09.953Z,51.87
2017-08-23T07:03:19.895Z,51.77
2017-08-23T07:04:30.163Z,51.77
2017-08-23T07:05:40.233Z,51.77
2017-08-23T07:06:50.159Z,51.39
2017-08-23T07:08:00.392Z,51.2
2017-08-23T07:09:10.343Z,51.1
2017-08-23T07:10:20.273Z,50.9
2017-08-23T07:11:30.331Z,51.2
2017-08-23T07:12:39.948Z,51.12
2017-08-23T07:13:50.199Z,51.22
2017-08-23T07:14:59.824Z,51.22
2017-08-23T07:16:10.056Z,51.41
2017-08-23T07:17:19.480Z,51.2
2017-08-23T07:18:29.399Z,51.22
2017-08-23T07:19:39.327Z,51.12
2017-08-23T07:20:49.549Z,51.41
2017-08-23T07:21:59.463Z,51.12
2017-08-23T07:23:10.045Z,50.84
2017-08-23T07:24:19.357Z,50.93
2017-08-23T07:25:29.293Z,50.64
2017-08-23T07:26:39.210Z,50.74
2017-08-23T07:27:49.144Z,50.64
2017-08-23T07:28:58.766Z,50.74
2017-08-23T07:30:08.394Z,50.64
2017-08-23T07:31:18.013Z,50.93
2017-08-23T07:32:27.941Z,50.67
2017-08-23T07:33:38.252Z,50.84
2017-08-23T07:34:48.485Z,50.57
2017-08-23T07:35:58.118Z,50.38
2017-08-23T07:37:08.055Z,50.28
2017-08-23T07:38:17.681Z,50.57
2017-08-23T07:39:27.913Z,50.09
2017-08-23T07:40:37.376Z,48.86
2017-08-23T07:41:47.289Z,47.81
2017-08-23T07:42:57.204Z,46.78
2017-08-23T07:44:07.128Z,45.66
2017-08-23T07:45:17.106Z,44.53
2017-08-23T07:46:27.130Z,43.5
2017-08-23T07:47:36.751Z,42.55
2017-08-23T07:48:46.699Z,41.7
2017-08-23T07:49:56.645Z,40.85
2017-08-23T07:51:06.578Z,40.67
2017-08-23T07:52:16.967Z,40
2017-08-23T07:53:26.581Z,40.03
2017-08-23T07:54:36.258Z,39.26
2017-08-23T07:55:46.282Z,38.4
2017-08-23T07:56:56.314Z,38.71
2017-08-23T07:58:06.376Z,38.23
2017-08-23T07:59:15.700Z,38.05
2017-08-23T08:00:25.312Z,37.95
2017-08-23T08:01:35.234Z,38.05
2017-08-23T08:02:45.205Z,37.77
2017-08-23T08:03:55.597Z,37.87
2017-08-23T08:05:05.526Z,37.87
2017-08-23T08:06:15.145Z,38.17
2017-08-23T08:07:25.387Z,38.65
2017-08-23T08:08:35.314Z,39.98
2017-08-23T08:09:45.278Z,40.66
2017-08-23T08:10:55.195Z,41.13
2017-08-23T08:12:05.446Z,42.66
2017-08-23T08:13:15.044Z,42.83
2017-08-23T08:14:24.981Z,43.3
2017-08-23T08:15:35.210Z,43.76
2017-08-23T08:16:45.437Z,44.54
2017-08-23T08:17:55.046Z,44.9
2017-08-23T08:19:04.349Z,45.2
2017-08-23T08:20:14.281Z,45.47
2017-08-23T08:21:24.867Z,45.85
2017-08-23T08:22:34.804Z,45.73
2017-08-23T08:23:45.044Z,46.41
2017-08-23T08:24:54.659Z,46.7
2017-08-23T08:26:04.281Z,46.97
2017-08-23T08:27:14.094Z,47.26
2017-08-23T08:28:23.711Z,47.26
2017-08-23T08:29:33.312Z,47.55
2017-08-23T08:30:42.933Z,47.91
2017-08-23T08:31:53.184Z,48.69
2017-08-23T08:33:02.963Z,48.2
2017-08-23T08:34:12.587Z,48.49
2017-08-23T08:35:22.544Z,48.79
2017-08-23T08:36:32.781Z,48.59
2017-08-23T08:37:42.409Z,48.86
2017-08-23T08:38:52.477Z,49.05
2017-08-23T08:40:02.704Z,48.86
2017-08-23T08:41:12.663Z,48.57
2017-08-23T08:42:22.584Z,48.95
2017-08-23T08:43:32.825Z,48.95
2017-08-23T08:44:43.217Z,49.05
2017-08-23T08:45:52.860Z,49.05
2017-08-23T08:47:02.486Z,49.24
2017-08-23T08:48:12.728Z,49.15
2017-08-23T08:49:22.339Z,49.8
2017-08-23T08:50:32.251Z,49.6
2017-08-23T08:51:41.887Z,49.32
2017-08-23T08:52:51.521Z,49.9
2017-08-23T08:54:01.473Z,49.9
2017-08-23T08:55:11.394Z,49.99
2017-08-23T08:56:21.476Z,49.8
2017-08-23T08:57:31.434Z,49.8
2017-08-23T08:58:41.046Z,50.38
2017-08-23T08:59:51.264Z,50.48
2017-08-23T09:01:01.176Z,50.28
2017-08-23T09:02:11.554Z,50.18
2017-08-23T09:03:21.465Z,50.16
2017-08-23T09:04:31.400Z,49.97
2017-08-23T09:05:40.697Z,50.16
2017-08-23T09:06:50.005Z,50.07
2017-08-23T09:08:00.383Z,50.45
2017-08-23T09:09:10.630Z,50.55
2017-08-23T09:10:20.595Z,49.97
2017-08-23T09:11:30.256Z,50.45
2017-08-23T09:12:40.191Z,50.45
2017-08-23T09:13:49.530Z,50.16
2017-08-23T09:14:59.518Z,50.35
2017-08-23T09:16:09.447Z,50.26
2017-08-23T09:17:19.392Z,50.35
2017-08-23T09:18:29.019Z,50.45
2017-08-23T09:19:38.726Z,50.35
2017-08-23T09:20:48.670Z,50.45
2017-08-23T09:21:58.635Z,50.35
2017-08-23T09:23:07.975Z,50.35
2017-08-23T09:24:18.284Z,50.35
2017-08-23T09:25:28.314Z,50.35
2017-08-23T09:26:38.528Z,50.26
2017-08-23T09:27:47.525Z,50.35
2017-08-23T09:28:57.140Z,50.45
2017-08-23T09:30:07.065Z,50.55
2017-08-23T09:31:16.984Z,50.65
2017-08-23T09:32:26.630Z,50.74
2017-08-23T09:33:36.574Z,50.84
2017-08-23T09:34:46.808Z,50.93
2017-08-23T09:35:56.761Z,50.93
2017-08-23T09:37:06.859Z,50.93
2017-08-23T09:38:16.778Z,49.97
2017-08-23T09:39:26.434Z,50.93
2017-08-23T09:40:36.356Z,51.01
2017-08-23T09:41:46.273Z,50.74
2017-08-23T09:42:56.683Z,50.93
2017-08-23T09:44:06.615Z,50.65
2017-08-23T09:45:16.548Z,50.62
2017-08-23T09:46:26.478Z,50.62
2017-08-23T09:47:36.093Z,50.43
2017-08-23T09:48:46.674Z,50.81
2017-08-23T09:49:56.316Z,50.33
2017-08-23T09:51:06.244Z,50.74
2017-08-23T09:52:15.252Z,50.71
2017-08-23T09:53:25.487Z,50.65
2017-08-23T09:54:35.765Z,50.74
2017-08-23T09:55:45.980Z,50.43
2017-08-23T09:56:55.608Z,50.74
2017-08-23T09:58:05.381Z,50.74
2017-08-23T09:59:15.310Z,50.81
2017-08-23T10:00:24.964Z,50.45
2017-08-23T10:01:34.911Z,50.84
2017-08-23T10:02:44.537Z,50.91
2017-08-23T10:03:54.493Z,50.43
2017-08-23T10:05:04.144Z,50.91
2017-08-23T10:06:14.245Z,51.01
2017-08-23T10:07:24.200Z,50.43
2017-08-23T10:08:33.802Z,50.91
2017-08-23T10:09:44.037Z,50.91
2017-08-23T10:10:53.398Z,50.93
2017-08-23T10:12:03.645Z,50.81
2017-08-23T10:13:13.257Z,50.91
2017-08-23T10:14:22.939Z,51.1
2017-08-23T10:15:32.287Z,51.03
2017-08-23T10:16:42.686Z,50.93
2017-08-23T10:17:52.439Z,50.33
2017-08-23T10:19:02.393Z,50.45
2017-08-23T10:20:12.064Z,50.84
2017-08-23T10:21:22.027Z,50.52
2017-08-23T10:22:31.988Z,50.93
2017-08-23T10:23:42.255Z,50.43
2017-08-23T10:24:52.482Z,50.45
2017-08-23T10:26:02.408Z,50.91
2017-08-23T10:27:12.371Z,50.93
2017-08-23T10:28:22.300Z,51.03
2017-08-23T10:29:32.673Z,50.91
2017-08-23T10:30:42.608Z,51.1
2017-08-23T10:31:52.536Z,50.23
2017-08-23T10:33:02.762Z,50.91
2017-08-23T10:34:12.755Z,50.93
2017-08-23T10:35:22.691Z,51.1
2017-08-23T10:36:32.939Z,51.1
2017-08-23T10:37:43.174Z,51.03
2017-08-23T10:38:52.481Z,50.62
2017-08-23T10:40:01.853Z,50.84
2017-08-23T10:41:11.936Z,50.91
2017-08-23T10:42:21.875Z,51.1
2017-08-23T10:43:31.510Z,50.93
2017-08-23T10:44:41.440Z,50.91
2017-08-23T10:45:51.048Z,50.81
2017-08-23T10:47:01.650Z,50.71
2017-08-23T10:48:11.284Z,50.74
2017-08-23T10:49:21.537Z,50.71
2017-08-23T10:50:31.200Z,50.71
2017-08-23T10:51:41.179Z,51.13
2017-08-23T10:52:51.207Z,50.91
2017-08-23T10:54:00.882Z,51.01
2017-08-23T10:55:10.932Z,51.03
2017-08-23T10:56:20.241Z,51.13
2017-08-23T10:57:30.271Z,50.93
2017-08-23T10:58:40.561Z,51.13
2017-08-23T10:59:49.641Z,51.1
2017-08-23T11:00:59.284Z,50.93
2017-08-23T11:02:09.613Z,50.91
2017-08-23T11:03:19.299Z,50.65
2017-08-23T11:04:28.791Z,50.93
2017-08-23T11:05:38.426Z,51.13
2017-08-23T11:06:48.427Z,50.93
2017-08-23T11:07:58.445Z,51.13
2017-08-23T11:09:08.758Z,50.91
2017-08-23T11:10:19.323Z,50.93
2017-08-23T11:11:29.286Z,50.93
2017-08-23T11:12:39.251Z,50.91
2017-08-23T11:13:49.516Z,50.74
2017-08-23T11:14:59.513Z,51.13
2017-08-23T11:16:09.603Z,51.13
2017-08-23T11:17:18.908Z,50.93
2017-08-23T11:18:29.159Z,51.13
2017-08-23T11:19:39.097Z,51.13
2017-08-23T11:20:49.033Z,51.03
2017-08-23T11:21:59.188Z,50.93
2017-08-23T11:23:08.851Z,50.93
2017-08-23T11:24:18.872Z,50.84
2017-08-23T11:25:29.281Z,51.13
2017-08-23T11:26:39.250Z,51.13
2017-08-23T11:27:48.573Z,50.74
2017-08-23T11:28:58.229Z,50.93
2017-08-23T11:30:07.857Z,50.35
2017-08-23T11:31:18.144Z,50.16
2017-08-23T11:32:28.080Z,51.13
2017-08-23T11:33:37.559Z,50.84
2017-08-23T11:34:46.961Z,51.13
2017-08-23T11:35:56.930Z,50.84
2017-08-23T11:37:06.264Z,50.81
2017-08-23T11:38:15.898Z,50.74
2017-08-23T11:39:25.627Z,50.84
2017-08-23T11:40:35.637Z,51.03
2017-08-23T11:41:45.606Z,51.03
2017-08-23T11:42:55.841Z,50.84
2017-08-23T11:44:05.456Z,50.93
2017-08-23T11:45:16.042Z,50.84
2017-08-23T11:46:26.266Z,50.84
2017-08-23T11:47:35.866Z,50.35
2017-08-23T11:48:45.495Z,50.84
2017-08-23T11:49:55.726Z,50.74
2017-08-23T11:51:05.530Z,50.65
2017-08-23T11:52:15.449Z,50.65
2017-08-23T11:53:25.682Z,51.03
2017-08-23T11:54:34.679Z,51.03
2017-08-23T11:55:44.599Z,51.03
2017-08-23T11:56:55.145Z,50.84
2017-08-23T11:58:05.093Z,50.74
2017-08-23T11:59:15.323Z,50.84
2017-08-23T12:00:25.782Z,50.55
2017-08-23T12:01:35.750Z,50.74
2017-08-23T12:02:45.585Z,50.84
2017-08-23T12:03:55.299Z,50.74
2017-08-23T12:05:05.231Z,50.55
2017-08-23T12:06:14.875Z,50.93
2017-08-23T12:07:24.192Z,50.55
2017-08-23T12:08:34.343Z,50.74
2017-08-23T12:09:44.262Z,50.65
2017-08-23T12:10:53.565Z,50.65
2017-08-23T12:12:03.178Z,50.65
2017-08-23T12:13:13.125Z,50.65
2017-08-23T12:14:23.094Z,50.45
2017-08-23T12:15:32.430Z,50.65
2017-08-23T12:16:41.770Z,50.55
2017-08-23T12:17:51.710Z,50.65
2017-08-23T12:19:01.619Z,50.65
2017-08-23T12:20:11.713Z,50.45
2017-08-23T12:21:21.340Z,50.65
2017-08-23T12:22:30.644Z,50.65
2017-08-23T12:23:40.584Z,50.55
2017-08-23T12:24:50.829Z,50.55
2017-08-23T12:26:00.793Z,50.45
2017-08-23T12:27:10.716Z,50.45
2017-08-23T12:28:20.659Z,50.35
2017-08-23T12:29:30.644Z,50.84
2017-08-23T12:30:40.598Z,50.93
2017-08-23T12:31:50.683Z,50.93
2017-08-23T12:33:00.615Z,50.93
2017-08-23T12:34:10.265Z,51.03
2017-08-23T12:35:19.568Z,50.74
2017-08-23T12:36:29.831Z,51.03
2017-08-23T12:37:39.451Z,50.74
2017-08-23T12:38:49.084Z,50.74
2017-08-23T12:39:59.319Z,50.93
2017-08-23T12:41:09.235Z,50.65
2017-08-23T12:42:19.160Z,51.03
2017-08-23T12:43:28.937Z,50.84
2017-08-23T12:44:38.905Z,50.65
2017-08-23T12:45:48.835Z,51.03
2017-08-23T12:46:58.794Z,51.03
2017-08-23T12:48:09.057Z,50.93
2017-08-23T12:49:18.547Z,51.03
2017-08-23T12:50:28.159Z,50.93
2017-08-23T12:51:38.406Z,51.03
2017-08-23T12:52:48.695Z,50.65
2017-08-23T12:53:58.336Z,50.74
2017-08-23T12:55:08.621Z,50.74
2017-08-23T12:56:18.540Z,50.74
2017-08-23T12:57:28.464Z,50.65
2017-08-23T12:58:38.411Z,50.74
2017-08-23T12:59:48.669Z,50.74
2017-08-23T13:00:58.025Z,50.65
2017-08-23T13:02:07.657Z,50.74
2017-08-23T13:03:17.911Z,50.45
2017-08-23T13:04:27.825Z,50.74
2017-08-23T13:05:37.467Z,50.93
2017-08-23T13:06:47.240Z,51.03
2017-08-23T13:07:57.172Z,50.93
2017-08-23T13:09:07.126Z,51.03
2017-08-23T13:10:17.380Z,50.74
2017-08-23T13:11:27.623Z,50.93
2017-08-23T13:12:37.661Z,50.93
2017-08-23T13:13:47.914Z,50.65
2017-08-23T13:14:57.835Z,50.93
2017-08-23T13:16:07.459Z,50.93
2017-08-23T13:17:17.384Z,50.16
2017-08-23T13:18:27.638Z,50.93
2017-08-23T13:19:37.552Z,50.93
2017-08-23T13:20:48.411Z,50.84
2017-08-23T13:21:58.636Z,50.65
2017-08-23T13:23:08.271Z,50.65
2017-08-23T13:24:17.750Z,50.65
2017-08-23T13:25:27.697Z,50.45
2017-08-23T13:26:37.940Z,50.45
2017-08-23T13:27:47.863Z,50.84
2017-08-23T13:28:57.180Z,51.03
2017-08-23T13:30:07.091Z,50.93
2017-08-23T13:31:17.020Z,50.84
2017-08-23T13:32:27.296Z,50.93
2017-08-23T13:33:37.551Z,50.84
2017-08-23T13:34:46.883Z,51.03
2017-08-23T13:35:57.201Z,50.93
2017-08-23T13:37:06.859Z,50.93
2017-08-23T13:38:16.811Z,50.93
2017-08-23T13:39:26.761Z,50.84
2017-08-23T13:40:36.406Z,50.84
2017-08-23T13:41:47.020Z,50.96
2017-08-23T13:42:57.285Z,50.86
2017-08-23T13:44:07.226Z,50.84
2017-08-23T13:45:16.864Z,50.84
2017-08-23T13:46:26.793Z,50.74
2017-08-23T13:47:36.593Z,50.67
2017-08-23T13:48:46.276Z,50.65
2017-08-23T13:49:56.520Z,50.65
2017-08-23T13:51:05.834Z,50.76
2017-08-23T13:52:15.897Z,50.67
2017-08-23T13:53:25.810Z,50.84
2017-08-23T13:54:35.432Z,50.16
2017-08-23T13:55:45.663Z,50.74
2017-08-23T13:56:55.295Z,50.74
2017-08-23T13:58:05.532Z,50.74
2017-08-23T13:59:15.595Z,50.57
2017-08-23T14:00:24.899Z,50.76
2017-08-23T14:01:34.503Z,50.45
2017-08-23T14:02:44.842Z,50.76
2017-08-23T14:03:54.776Z,50.76
2017-08-23T14:05:04.803Z,50.67
2017-08-23T14:06:14.738Z,50.48
2017-08-23T14:07:24.962Z,50.76
2017-08-23T14:08:34.580Z,50.57
2017-08-23T14:09:44.212Z,50.76
2017-08-23T14:10:54.596Z,50.76
2017-08-23T14:12:04.841Z,50.76
2017-08-23T14:13:14.461Z,50.96
2017-08-23T14:14:24.097Z,50.76
2017-08-23T14:15:34.020Z,50.67
2017-08-23T14:16:44.285Z,50.67
2017-08-23T14:17:53.597Z,50.38
2017-08-23T14:19:03.523Z,50.18
2017-08-23T14:20:12.828Z,50.76
2017-08-23T14:21:22.788Z,50.67
2017-08-23T14:22:32.856Z,50.57
2017-08-23T14:23:43.214Z,50.67
2017-08-23T14:24:53.141Z,50.67
2017-08-23T14:26:02.818Z,50.67
2017-08-23T14:27:13.363Z,50.76
2017-08-23T14:28:23.291Z,50.57
2017-08-23T14:29:33.231Z,50.67
2017-08-23T14:30:43.161Z,50.48
2017-08-23T14:31:52.489Z,50.38
2017-08-23T14:33:01.821Z,50.38
2017-08-23T14:34:12.037Z,50.28
2017-08-23T14:35:21.666Z,50.67
2017-08-23T14:36:31.907Z,50.67
2017-08-23T14:37:41.877Z,50.67
2017-08-23T14:38:51.822Z,50.76
2017-08-23T14:40:02.116Z,50.48
2017-08-23T14:41:12.097Z,50.76
2017-08-23T14:42:22.055Z,50.18
2017-08-23T14:43:31.688Z,50.28
2017-08-23T14:44:41.940Z,50.67
2017-08-23T14:45:51.617Z,50.67
2017-08-23T14:47:01.255Z,50.28
2017-08-23T14:48:10.868Z,50.67
2017-08-23T14:49:19.881Z,50.67
2017-08-23T14:50:30.112Z,50.67
2017-08-23T14:51:39.890Z,50.67
2017-08-23T14:52:49.803Z,50.67
2017-08-23T14:54:00.034Z,50.76
2017-08-23T14:55:09.954Z,50.76
2017-08-23T14:56:20.171Z,50.18
2017-08-23T14:57:29.567Z,50.67
2017-08-23T14:58:39.789Z,50.57
2017-08-23T14:59:50.039Z,50.67
2017-08-23T15:00:59.356Z,50.67
2017-08-23T15:02:09.270Z,50.48
2017-08-23T15:03:18.743Z,50.18
2017-08-23T15:04:28.389Z,50.38
2017-08-23T15:05:38.027Z,50.28
2017-08-23T15:06:47.647Z,50.28
2017-08-23T15:07:57.890Z,50.28
2017-08-23T15:09:07.226Z,50.38
2017-08-23T15:10:17.845Z,50.38